Time;durP1;ratioP1;P1;durP2;ratioP2;P2;SDS_P1;SDS_P2;PMS_P1;PMS_P2;Temp;Humidity;BMP_temperature;BMP_pressure;BME280_temperature;BME280_humidity;BME280_pressure;Samples;Min_cycle;Max_cycle;Signal;HPM_P1;HPM_P2
2024/04/04 00:00:52;;;;;;;;;3.00;3.00;;;;;15.00;75.59;100398.59;5059913;28;45766;-56
2024/04/04 00:03:17;;;;;;;;;6.75;3.25;;;;;15.00;76.01;100398.59;5060019;28;46118;-58
2024/04/04 00:05:42;;;;;;;;;4.50;3.25;;;;;14.99;75.84;100389.81;5059644;28;72187;-58
2024/04/04 00:08:08;;;;;;;;;6.50;3.00;;;;;14.99;75.89;100381.06;5059022;28;45328;-58
2024/04/04 00:10:33;;;;;;;;;6.50;2.00;;;;;14.98;76.28;100382.88;5057826;28;72781;-57
2024/04/04 00:12:59;;;;;;;;;6.25;4.00;;;;;15.00;76.42;100388.91;5056832;28;75472;-57
2024/04/04 00:15:25;;;;;;;;;5.25;3.25;;;;;15.02;76.12;100383.56;5059850;28;45222;-57
2024/04/04 00:17:50;;;;;;;;;4.00;2.25;;;;;15.04;76.15;100371.16;5056472;27;48148;-57
2024/04/04 00:20:16;;;;;;;;;3.00;2.75;;;;;15.06;76.43;100369.28;5059496;28;71105;-57
2024/04/04 00:22:42;;;;;;;;;5.75;3.00;;;;;15.06;75.99;100356.09;5052178;28;46039;-56
2024/04/04 00:25:08;;;;;;;;;3.25;3.00;;;;;15.07;76.44;100352.56;5053778;28;45718;-57
2024/04/04 00:27:33;;;;;;;;;6.00;4.50;;;;;15.07;76.77;100359.59;5055874;28;45411;-57
2024/04/04 00:29:59;;;;;;;;;4.25;2.50;;;;;15.09;76.88;100357.75;5059073;28;45506;-57
2024/04/04 00:32:24;;;;;;;;;6.75;3.00;;;;;15.10;76.81;100362.06;5058999;27;46390;-58
2024/04/04 00:34:49;;;;;;;;;6.75;4.00;;;;;15.11;76.85;100340.06;5059516;28;45308;-57
2024/04/04 00:37:15;;;;;;;;;6.00;3.50;;;;;15.11;76.86;100340.91;5056950;28;45367;-56
2024/04/04 00:39:40;;;;;;;;;7.25;3.00;;;;;15.12;76.62;100345.25;5059427;28;72774;-55
2024/04/04 00:42:05;;;;;;;;;4.25;2.75;;;;;15.12;77.09;100332.09;5053916;28;46231;-57
2024/04/04 00:44:31;;;;;;;;;2.75;2.00;;;;;15.13;77.04;100340.84;5053806;28;48578;-57
2024/04/04 00:46:56;;;;;;;;;5.00;2.75;;;;;15.11;77.14;100333.00;5058204;28;60982;-56
2024/04/04 00:49:21;;;;;;;;;2.00;2.00;;;;;15.11;77.41;100319.84;5058165;28;58043;-58
2024/04/04 00:51:48;;;;;;;;;6.25;2.75;;;;;15.10;77.64;100320.78;5058805;28;46343;-55
2024/04/04 00:54:13;;;;;;;;;4.50;2.25;;;;;15.12;77.49;100323.31;5057961;28;45307;-56
2024/04/04 00:56:39;;;;;;;;;4.75;2.50;;;;;15.13;77.56;100311.84;5054672;28;45257;-56
2024/04/04 00:59:06;;;;;;;;;5.75;3.00;;;;;15.10;77.89;100312.00;5041787;28;68649;-57
2024/04/04 01:01:31;;;;;;;;;3.00;1.75;;;;;15.07;77.65;100305.13;5056694;28;45528;-56
2024/04/04 01:03:56;;;;;;;;;5.50;3.00;;;;;15.06;78.14;100307.84;5061080;28;45253;-56
2024/04/04 01:06:31;;;;;;;;;2.00;2.00;;;;;15.03;78.39;100303.56;5056954;28;69027;-56
2024/04/04 01:09:00;;;;;;;;;5.75;1.25;;;;;15.03;78.33;100308.81;5057226;28;45387;-56
2024/04/04 01:11:26;;;;;;;;;5.50;2.00;;;;;15.01;78.32;100300.16;5059869;28;47302;-57
2024/04/04 01:13:51;;;;;;;;;4.50;2.50;;;;;15.02;78.54;100299.25;5058220;28;45536;-57
2024/04/04 01:16:17;;;;;;;;;2.50;2.00;;;;;15.03;78.61;100289.53;5043759;28;45662;-56
2024/04/04 01:18:42;;;;;;;;;4.50;1.75;;;;;15.01;78.46;100289.63;5056310;28;70264;-56
2024/04/04 01:21:07;;;;;;;;;4.75;3.00;;;;;15.03;78.53;100281.63;5054966;28;46178;-56
2024/04/04 01:23:32;;;;;;;;;3.00;3.00;;;;;15.03;78.52;100265.81;5056422;28;54626;-56
2024/04/04 01:25:58;;;;;;;;;5.00;2.00;;;;;15.05;78.72;100272.72;5055836;28;67281;-54
2024/04/04 01:28:23;;;;;;;;;3.25;2.25;;;;;15.01;79.75;100279.06;5056172;28;68587;-59
2024/04/04 01:30:49;;;;;;;;;2.25;2.25;;;;;14.99;79.85;100268.59;5057944;28;75584;-57
2024/04/04 01:33:14;;;;;;;;;5.25;2.00;;;;;14.97;80.03;100272.28;5055173;28;45225;-56
2024/04/04 01:35:39;;;;;;;;;4.25;2.00;;;;;14.93;80.60;100271.59;5056300;28;67906;-55
2024/04/04 01:38:05;;;;;;;;;4.75;2.50;;;;;14.89;80.77;100262.16;5058566;28;70137;-57
2024/04/04 01:40:30;;;;;;;;;1.75;1.00;;;;;14.85;80.64;100273.75;5059211;28;73069;-53
2024/04/04 01:42:55;;;;;;;;;6.75;3.00;;;;;14.79;81.23;100274.09;5055856;28;72950;-56
2024/04/04 01:45:21;;;;;;;;;6.00;3.50;;;;;14.77;81.10;100268.06;5056089;28;69294;-55
2024/04/04 01:47:46;;;;;;;;;3.50;2.50;;;;;14.73;80.98;100275.28;5056341;28;72103;-56
2024/04/04 01:50:11;;;;;;;;;4.50;2.00;;;;;14.70;81.55;100259.63;5056757;28;75761;-57
2024/04/04 01:52:37;;;;;;;;;4.00;2.00;;;;;14.70;81.38;100262.25;5058111;28;71292;-56
2024/04/04 01:55:02;;;;;;;;;6.25;3.00;;;;;14.69;81.45;100257.06;5058985;28;68530;-57
2024/04/04 01:57:27;;;;;;;;;5.75;2.00;;;;;14.70;81.55;100249.09;5053368;28;45227;-57
2024/04/04 01:59:53;;;;;;;;;4.25;1.00;;;;;14.71;80.78;100239.38;5052358;28;66343;-57
2024/04/04 02:02:18;;;;;;;;;4.25;3.00;;;;;14.70;81.33;100235.91;5055213;28;69952;-57
2024/04/04 02:04:43;;;;;;;;;3.00;3.00;;;;;14.71;80.87;100229.69;5057429;28;69421;-57
2024/04/04 02:07:08;;;;;;;;;4.25;2.50;;;;;14.73;80.84;100219.09;5051484;28;72004;-53
2024/04/04 02:09:34;;;;;;;;;4.00;2.25;;;;;14.69;80.61;100215.75;5054363;28;75626;-56
2024/04/04 02:11:59;;;;;;;;;8.00;3.25;;;;;14.71;80.53;100223.59;5059595;28;45355;-57
2024/04/04 02:14:25;;;;;;;;;6.00;1.00;;;;;14.72;80.88;100218.25;5059200;28;45535;-57
2024/04/04 02:16:50;;;;;;;;;5.00;3.75;;;;;14.74;80.91;100207.63;5055935;28;45419;-56
2024/04/04 02:19:16;;;;;;;;;4.00;2.00;;;;;14.76;80.92;100216.28;5048189;28;75490;-54
2024/04/04 02:21:41;;;;;;;;;4.25;2.50;;;;;14.76;80.99;100217.13;5055407;28;45527;-56
2024/04/04 02:24:06;;;;;;;;;2.75;2.00;;;;;14.77;80.94;100207.47;5057905;28;69856;-56
2024/04/04 02:26:32;;;;;;;;;4.00;3.00;;;;;14.76;80.89;100211.88;5054764;28;73264;-56
2024/04/04 02:28:59;;;;;;;;;2.00;2.00;;;;;14.77;80.94;100203.03;5057379;28;45333;-55
2024/04/04 02:31:24;;;;;;;;;2.50;2.00;;;;;14.76;81.37;100209.22;5055879;28;45791;-53
2024/04/04 02:33:50;;;;;;;;;3.25;1.00;;;;;14.75;81.22;100196.13;5057716;28;45394;-55
2024/04/04 02:36:15;;;;;;;;;5.50;2.25;;;;;14.77;81.12;100213.59;5054429;28;48254;-55
2024/04/04 02:38:41;;;;;;;;;4.00;2.25;;;;;14.78;81.16;100215.31;5057528;28;49455;-53
2024/04/04 02:41:07;;;;;;;;;4.25;1.75;;;;;14.76;81.01;100211.88;5053195;28;45226;-56
2024/04/04 02:43:32;;;;;;;;;2.75;2.00;;;;;14.74;81.20;100207.63;5048733;28;45563;-55
2024/04/04 02:45:59;;;;;;;;;4.50;1.25;;;;;14.73;81.25;100211.19;5051769;28;45703;-55
2024/04/04 02:48:24;;;;;;;;;4.25;2.00;;;;;14.71;81.05;100208.63;5050191;28;45497;-53
2024/04/04 02:50:57;;;;;;;;;4.00;2.00;;;;;14.70;80.90;100201.66;5051532;28;66007;-54
2024/04/04 02:53:22;;;;;;;;;3.75;1.75;;;;;14.69;81.21;100205.22;5056423;28;45443;-55
2024/04/04 02:55:58;;;;;;;;;3.25;2.75;;;;;14.67;80.98;100196.56;5056406;28;68671;-55
2024/04/04 02:58:24;;;;;;;;;1.50;1.50;;;;;14.65;81.66;100187.88;5054947;28;45874;-54
2024/04/04 03:00:50;;;;;;;;;2.00;2.00;;;;;14.65;83.76;100197.59;5054780;28;45971;-54
2024/04/04 03:03:15;;;;;;;;;4.00;1.00;;;;;14.61;86.67;100192.47;5056761;28;45379;-54
2024/04/04 03:05:41;;;;;;;;;1.75;1.25;;;;;14.60;82.95;100198.66;5054358;28;48698;-53
2024/04/04 03:08:07;;;;;;;;;2.00;2.00;;;;;14.58;82.67;100190.00;5053281;28;45562;-53
2024/04/04 03:10:32;;;;;;;;;3.00;1.00;;;;;14.55;83.07;100176.09;5054302;28;45520;-53
2024/04/04 03:12:58;;;;;;;;;7.50;2.25;;;;;14.54;83.06;100164.72;5057445;28;45320;-54
2024/04/04 03:15:23;;;;;;;;;1.50;1.00;;;;;14.53;83.10;100170.06;5054694;28;66570;-54
2024/04/04 03:17:50;;;;;;;;;2.00;0.50;;;;;14.52;82.90;100161.31;5053823;28;65910;-56
2024/04/04 03:20:15;;;;;;;;;1.25;1.25;;;;;14.51;82.93;100153.50;5055993;28;65153;-56
2024/04/04 03:22:40;;;;;;;;;2.25;1.00;;;;;14.52;83.01;100153.44;5052295;28;50173;-56
2024/04/04 03:25:06;;;;;;;;;3.00;2.00;;;;;14.47;83.17;100149.34;5056767;28;74424;-56
2024/04/04 03:27:31;;;;;;;;;3.00;0.75;;;;;14.47;82.97;100144.06;5056366;28;45469;-58
2024/04/04 03:29:57;;;;;;;;;3.00;2.00;;;;;14.44;83.43;100145.91;5057524;28;45497;-54
2024/04/04 03:32:22;;;;;;;;;1.25;0.75;;;;;14.45;83.25;100131.00;5059162;28;45455;-56
2024/04/04 03:34:48;;;;;;;;;4.00;1.00;;;;;14.43;83.37;100140.75;5055722;28;70288;-56
2024/04/04 03:37:13;;;;;;;;;3.25;1.00;;;;;14.40;83.48;100141.75;5061197;28;46821;-54
2024/04/04 03:39:39;;;;;;;;;5.50;2.00;;;;;14.38;83.45;100135.72;5060255;28;45671;-56
2024/04/04 03:42:05;;;;;;;;;1.00;1.00;;;;;14.38;83.26;100138.34;5055874;28;45469;-53
2024/04/04 03:44:31;;;;;;;;;3.50;1.00;;;;;14.36;83.66;100145.47;5045866;28;45435;-53
2024/04/04 03:46:56;;;;;;;;;2.25;0.00;;;;;14.33;83.91;100135.09;5059677;28;45625;-54
2024/04/04 03:49:22;;;;;;;;;2.25;1.00;;;;;14.32;83.92;100141.28;5058876;27;45502;-54
2024/04/04 03:51:48;;;;;;;;;2.00;1.75;;;;;14.30;84.06;100130.00;5060268;28;45436;-56
2024/04/04 03:54:13;;;;;;;;;2.00;1.00;;;;;14.29;83.80;100136.22;5059247;28;65669;-57
2024/04/04 03:56:38;;;;;;;;;4.00;1.75;;;;;14.27;83.80;100137.19;5058347;28;74584;-58
2024/04/04 03:59:04;;;;;;;;;0.50;0.50;;;;;14.26;83.91;100131.09;5059869;28;73300;-53
2024/04/04 04:01:29;;;;;;;;;2.25;1.00;;;;;14.23;84.28;100144.41;5056853;28;67460;-54
2024/04/04 04:03:55;;;;;;;;;2.25;0.75;;;;;14.20;84.34;100137.53;5058257;28;73115;-55
2024/04/04 04:06:20;;;;;;;;;3.00;1.00;;;;;14.15;84.70;100129.03;5055490;28;45419;-54
2024/04/04 04:08:46;;;;;;;;;2.00;0.75;;;;;14.14;85.06;100150.16;5061350;28;45334;-52
2024/04/04 04:11:12;;;;;;;;;2.50;0.75;;;;;14.13;85.28;100153.69;5061033;28;45257;-55
2024/04/04 04:13:37;;;;;;;;;2.00;0.00;;;;;14.07;85.17;100151.41;5059738;28;45549;-51
2024/04/04 04:16:02;;;;;;;;;1.00;1.00;;;;;14.05;85.59;100149.69;5054870;28;74802;-56
2024/04/04 04:18:28;;;;;;;;;2.00;0.00;;;;;14.02;86.18;100147.22;5058774;28;45699;-54
2024/04/04 04:21:17;;;;;;;;;1.75;0.25;;;;;14.00;87.87;100154.31;5059295;28;45414;-54
2024/04/04 04:23:43;;;;;;;;;1.00;0.75;;;;;13.98;86.86;100177.22;5060110;28;45861;-50
2024/04/04 04:26:08;;;;;;;;;1.50;0.75;;;;;14.00;86.69;100166.63;5059671;28;46029;-51
2024/04/04 04:28:34;;;;;;;;;0.00;0.00;;;;;14.00;86.76;100183.25;5058966;28;72052;-51
2024/04/04 04:30:59;;;;;;;;;2.00;0.00;;;;;13.97;87.47;100178.19;5048352;28;45308;-56
2024/04/04 04:33:24;;;;;;;;;1.00;1.00;;;;;13.98;87.27;100184.28;5060597;28;47141;-56
2024/04/04 04:35:50;;;;;;;;;2.00;1.00;;;;;13.95;87.18;100173.91;5059528;28;61422;-53
2024/04/04 04:38:15;;;;;;;;;1.75;1.00;;;;;13.89;88.04;100188.22;5059173;28;67393;-58
2024/04/04 04:40:41;;;;;;;;;1.00;0.75;;;;;13.89;87.11;100185.59;5058603;28;67988;-51
2024/04/04 04:43:08;;;;;;;;;2.00;0.00;;;;;13.87;87.44;100192.72;5035912;28;45324;-55
2024/04/04 04:45:34;;;;;;;;;1.50;1.00;;;;;13.80;89.26;100181.63;5046325;28;46200;-56
2024/04/04 04:47:59;;;;;;;;;0.50;0.50;;;;;13.80;90.02;100196.56;5046041;28;45466;-54
2024/04/04 04:50:25;;;;;;;;;3.00;0.00;;;;;13.76;89.04;100189.75;5053511;28;54170;-55
2024/04/04 04:52:50;;;;;;;;;0.25;0.25;;;;;13.75;88.49;100182.78;5059342;28;45318;-56
2024/04/04 04:55:15;;;;;;;;;0.00;0.00;;;;;13.75;88.83;100188.88;5060291;28;71615;-54
2024/04/04 04:57:40;;;;;;;;;1.00;0.00;;;;;13.74;88.87;100197.72;5059092;28;73417;-55
2024/04/04 05:00:11;;;;;;;;;0.75;0.00;;;;;13.75;88.14;100198.56;5060879;28;68861;-54
2024/04/04 05:02:36;;;;;;;;;0.00;0.00;;;;;13.75;88.22;100209.09;5060637;27;45290;-57
2024/04/04 05:05:15;;;;;;;;;0.00;0.00;;;;;13.72;89.31;100214.47;5050968;28;75917;-54
2024/04/04 05:07:41;;;;;;;;;2.75;0.00;;;;;13.67;89.30;100210.31;5058750;28;45303;-50
2024/04/04 05:10:06;;;;;;;;;1.00;0.00;;;;;13.65;89.10;100220.06;5054451;28;45393;-55
2024/04/04 05:12:32;;;;;;;;;2.25;0.75;;;;;13.64;90.63;100226.22;5057658;28;45399;-54
2024/04/04 05:14:58;;;;;;;;;1.00;0.00;;;;;13.63;89.62;100260.47;5060119;28;47025;-54
2024/04/04 05:17:23;;;;;;;;;1.50;1.00;;;;;13.65;89.82;100300.69;5059738;28;45267;-55
2024/04/04 05:19:48;;;;;;;;;1.50;1.00;;;;;13.65;89.96;100314.72;5054552;28;65023;-56
2024/04/04 05:22:14;;;;;;;;;0.00;0.00;;;;;13.67;89.64;100326.00;5058744;28;45538;-56
2024/04/04 05:24:39;;;;;;;;;2.00;0.25;;;;;13.66;90.21;100333.97;5055619;28;75734;-55
2024/04/04 05:27:04;;;;;;;;;1.50;0.00;;;;;13.60;89.64;100313.22;5055557;28;71970;-60
2024/04/04 05:29:30;;;;;;;;;0.00;0.00;;;;;13.41;90.62;100316.69;5055927;28;69387;-64
2024/04/04 05:31:55;;;;;;;;;0.00;0.00;;;;;13.26;89.61;100306.81;5056172;28;52894;-53
2024/04/04 05:34:22;;;;;;;;;1.50;0.00;;;;;13.11;88.05;100316.25;5051614;28;60959;-53
2024/04/04 05:36:47;;;;;;;;;0.00;0.00;;;;;13.03;86.51;100307.84;5060649;28;45271;-58
2024/04/04 05:39:13;;;;;;;;;0.00;0.00;;;;;13.00;85.79;100303.59;5074724;27;45531;-58
2024/04/04 05:41:38;;;;;;;;;0.00;0.00;;;;;12.99;85.61;100308.91;5058517;28;69782;-56
2024/04/04 05:44:04;;;;;;;;;0.00;0.00;;;;;12.94;85.83;100298.59;5058847;28;45894;-57
2024/04/04 05:46:30;;;;;;;;;1.25;0.00;;;;;12.95;85.87;100288.97;5058056;28;45540;-57
2024/04/04 05:48:56;;;;;;;;;0.00;0.00;;;;;12.98;85.78;100307.19;5055816;28;45335;-53
2024/04/04 05:51:23;;;;;;;;;0.00;0.00;;;;;13.00;85.89;100310.63;5056504;27;45457;-51
2024/04/04 05:53:48;;;;;;;;;172.00;142.25;;;;;13.03;86.35;100315.72;5057919;28;45457;-52
2024/04/04 05:56:14;;;;;;;;;2.00;1.75;;;;;13.06;86.43;100316.44;5056639;28;45421;-59
2024/04/04 05:58:39;;;;;;;;;1.00;1.00;;;;;13.11;86.07;100318.88;5057960;28;45226;-60
2024/04/04 06:01:04;;;;;;;;;0.00;0.00;;;;;13.13;86.56;100322.28;5054746;28;71993;-61
2024/04/04 06:03:30;;;;;;;;;0.00;0.00;;;;;13.16;87.01;100321.31;5059107;28;69586;-63
2024/04/04 06:05:55;;;;;;;;;0.50;0.50;;;;;13.17;87.66;100329.09;5056653;28;45312;-63
2024/04/04 06:08:22;;;;;;;;;1.00;0.00;;;;;13.20;87.99;100326.34;5049748;28;52930;-59
2024/04/04 06:10:47;;;;;;;;;0.75;0.00;;;;;13.22;88.07;100321.88;5053190;28;46461;-59
2024/04/04 06:13:12;;;;;;;;;0.00;0.00;;;;;13.25;88.41;100320.91;5055956;28;62010;-59
2024/04/04 06:15:38;;;;;;;;;0.00;0.00;;;;;13.28;88.12;100320.78;5047562;28;70858;-61
2024/04/04 06:18:03;;;;;;;;;0.00;0.00;;;;;13.28;87.87;100308.47;5056687;28;69351;-58
2024/04/04 06:20:28;;;;;;;;;2.75;1.00;;;;;13.34;87.79;100306.53;5060292;28;45497;-58
2024/04/04 06:22:54;;;;;;;;;0.00;0.00;;;;;13.35;87.14;100302.97;5058820;28;50182;-58
2024/04/04 06:25:19;;;;;;;;;0.00;0.00;;;;;13.38;87.47;100284.44;5059399;28;72029;-58
2024/04/04 06:27:46;;;;;;;;;1.00;0.00;;;;;13.39;86.70;100286.16;5059247;28;69347;-58
2024/04/04 06:30:12;;;;;;;;;0.25;0.00;;;;;13.41;86.40;100289.56;5058965;28;45435;-58
2024/04/04 06:32:37;;;;;;;;;2.00;0.00;;;;;13.43;86.69;100283.28;5054292;28;46326;-59
2024/04/04 06:35:03;;;;;;;;;2.25;0.75;;;;;13.45;86.49;100281.44;5054004;28;45312;-58
2024/04/04 06:37:28;;;;;;;;;0.25;0.00;;;;;13.47;85.63;100289.25;5058921;28;45279;-58
2024/04/04 06:39:54;;;;;;;;;0.50;0.00;;;;;13.50;85.82;100293.53;5058625;28;72108;-58
2024/04/04 06:42:19;;;;;;;;;0.25;0.00;;;;;13.50;85.71;100291.75;5058282;28;75566;-59
2024/04/04 06:44:44;;;;;;;;;2.00;0.50;;;;;13.50;85.31;100299.63;5056442;28;72044;-60
2024/04/04 06:47:10;;;;;;;;;1.50;0.00;;;;;13.50;85.07;100289.13;5055694;28;69276;-58
2024/04/04 06:49:36;;;;;;;;;0.00;0.00;;;;;13.50;85.35;100304.91;5049943;28;45428;-59
2024/04/04 06:52:01;;;;;;;;;0.00;0.00;;;;;13.52;84.98;100296.94;5042642;28;45592;-59
2024/04/04 06:54:27;;;;;;;;;0.00;0.00;;;;;13.54;84.75;100297.72;5039173;28;61365;-59
2024/04/04 06:56:52;;;;;;;;;0.00;0.00;;;;;13.55;85.01;100288.94;5038890;28;68982;-59
2024/04/04 06:59:17;;;;;;;;;0.00;0.00;;;;;13.58;84.95;100296.66;5039571;28;45232;-58
2024/04/04 07:01:44;;;;;;;;;0.00;0.00;;;;;13.60;84.85;100300.94;5039669;28;45506;-57
2024/04/04 07:04:09;;;;;;;;;0.00;0.00;;;;;13.61;84.97;100291.25;5049209;28;45716;-59
2024/04/04 07:06:35;;;;;;;;;1.50;0.00;;;;;13.63;85.13;100290.28;5049868;28;67058;-59
2024/04/04 07:09:00;;;;;;;;;0.00;0.00;;;;;13.64;84.95;100301.63;5052057;28;73151;-59
2024/04/04 07:11:26;;;;;;;;;2.00;0.00;;;;;13.66;85.29;100298.00;5044004;28;73610;-59
2024/04/04 07:13:51;;;;;;;;;4.50;1.00;;;;;13.68;85.26;100304.03;5039340;28;45371;-59
2024/04/04 07:16:17;;;;;;;;;1.50;0.00;;;;;13.67;85.26;100312.03;5039406;28;45808;-59
2024/04/04 07:18:42;;;;;;;;;0.00;0.00;;;;;13.64;85.70;100305.09;5039291;28;45502;-59
2024/04/04 07:21:08;;;;;;;;;1.00;0.75;;;;;13.62;85.71;100314.84;5039292;28;46022;-59
2024/04/04 07:23:34;;;;;;;;;2.75;1.00;;;;;13.61;86.06;100315.75;5039257;28;45250;-59
2024/04/04 07:25:59;;;;;;;;;0.00;0.00;;;;;13.61;86.61;100299.97;5041384;28;45571;-59
2024/04/04 07:28:25;;;;;;;;;0.75;0.00;;;;;13.62;86.26;100317.47;5039232;28;45336;-59
2024/04/04 07:30:50;;;;;;;;;1.75;0.75;;;;;13.60;86.31;100331.63;5042569;28;46198;-59
2024/04/04 07:33:16;;;;;;;;;0.00;0.00;;;;;13.61;86.10;100343.84;5052376;28;45323;-58
2024/04/04 07:35:41;;;;;;;;;0.25;0.25;;;;;13.56;88.16;100361.59;5054051;28;45309;-58
2024/04/04 07:38:08;;;;;;;;;0.50;0.00;;;;;13.50;88.46;100356.63;5050876;28;45449;-58
2024/04/04 07:40:38;;;;;;;;;0.00;0.00;;;;;13.43;88.47;100356.88;5040820;28;46437;-59
2024/04/04 07:43:04;;;;;;;;;0.50;0.00;;;;;13.40;88.59;100371.94;5047926;28;45236;-58
2024/04/04 07:45:30;;;;;;;;;0.75;0.00;;;;;13.38;88.59;100376.44;5054153;28;45264;-58
2024/04/04 07:47:56;;;;;;;;;1.25;0.50;;;;;13.37;89.43;100370.31;5054982;28;45646;-56
2024/04/04 07:50:23;;;;;;;;;2.50;0.25;;;;;13.38;89.30;100390.41;5054854;28;45969;-58
2024/04/04 07:52:49;;;;;;;;;2.25;0.00;;;;;13.37;91.11;100407.13;5038838;28;45810;-59
2024/04/04 07:55:15;;;;;;;;;1.75;0.00;;;;;13.26;90.62;100409.31;5041335;28;46050;-59
2024/04/04 07:57:41;;;;;;;;;0.75;0.00;;;;;13.13;88.34;100387.97;5059138;28;45317;-58
2024/04/04 08:00:07;;;;;;;;;0.25;0.00;;;;;13.05;87.23;100388.31;5052287;28;48220;-57
2024/04/04 08:02:33;;;;;;;;;1.25;0.00;;;;;12.99;86.49;100377.22;5058925;28;45311;-58
2024/04/04 08:04:58;;;;;;;;;4.00;0.00;;;;;12.96;88.05;100386.09;5057850;28;45279;-58
2024/04/04 08:07:23;;;;;;;;;0.00;0.00;;;;;12.89;85.68;100384.59;5039597;28;45174;-57
2024/04/04 08:09:49;;;;;;;;;0.75;0.00;;;;;12.84;86.10;100374.31;5038845;28;46606;-56
2024/04/04 08:12:14;;;;;;;;;0.00;0.00;;;;;12.78;85.60;100371.09;5038193;28;69670;-58
2024/04/04 08:14:39;;;;;;;;;0.25;0.00;;;;;12.76;85.96;100370.31;5037863;28;69706;-58
2024/04/04 08:17:05;;;;;;;;;0.00;0.00;;;;;12.76;85.22;100376.41;5047167;28;72110;-59
2024/04/04 08:19:30;;;;;;;;;2.25;0.00;;;;;12.73;84.81;100366.91;5045814;28;76096;-57
2024/04/04 08:21:55;;;;;;;;;0.00;0.00;;;;;12.66;84.42;100357.56;5042003;28;73407;-58
2024/04/04 08:24:20;;;;;;;;;0.00;0.00;;;;;12.62;84.26;100370.88;5060997;28;68724;-58
2024/04/04 08:26:46;;;;;;;;;0.00;0.00;;;;;12.59;85.27;100386.75;5061219;28;71902;-58
2024/04/04 08:29:13;;;;;;;;;0.00;0.00;;;;;12.59;84.77;100384.13;5060614;28;45897;-58
2024/04/04 08:31:38;;;;;;;;;0.25;0.00;;;;;12.57;100.00;100391.22;5049701;28;45949;-57
2024/04/04 08:34:04;;;;;;;;;1.00;0.00;;;;;12.59;100.00;100405.13;5057835;28;45408;-59
2024/04/04 08:36:29;;;;;;;;;0.00;0.00;;;;;12.64;100.00;100404.03;5041743;28;45296;-59
2024/04/04 08:38:55;;;;;;;;;2.00;0.00;;;;;12.63;100.00;100388.34;5041054;28;76519;-58
2024/04/04 08:41:20;;;;;;;;;0.00;0.00;;;;;12.68;100.00;100384.59;5043398;28;72474;-58
2024/04/04 08:43:46;;;;;;;;;0.75;0.00;;;;;12.67;91.77;100374.16;5041766;27;45885;-58
2024/04/04 08:46:12;;;;;;;;;0.00;0.00;;;;;12.59;90.69;100369.25;5057999;28;45373;-58
2024/04/04 08:48:37;;;;;;;;;0.50;0.00;;;;;12.63;90.54;100377.84;5046903;28;53238;-59
2024/04/04 08:51:04;;;;;;;;;1.50;1.00;;;;;12.61;89.91;100372.66;5053340;28;45476;-58
2024/04/04 08:53:31;;;;;;;;;1.25;0.00;;;;;12.63;89.67;100399.69;5040384;28;45432;-57
2024/04/04 08:55:56;;;;;;;;;0.25;0.25;;;;;12.66;89.62;100393.44;5052388;28;45849;-57
2024/04/04 08:58:23;;;;;;;;;2.00;0.00;;;;;12.74;89.58;100399.25;5047120;28;45367;-58
2024/04/04 09:00:52;;;;;;;;;0.50;0.50;;;;;12.82;89.96;100388.41;5049236;28;45336;-57
2024/04/04 09:03:18;;;;;;;;;1.50;0.00;;;;;12.91;89.26;100394.16;5059928;28;45558;-57
2024/04/04 09:05:44;;;;;;;;;0.00;0.00;;;;;13.00;89.21;100392.06;5045373;28;45513;-58
2024/04/04 09:08:10;;;;;;;;;1.25;0.00;;;;;13.11;89.31;100414.31;5058298;28;46938;-58
2024/04/04 09:10:36;;;;;;;;;0.00;0.00;;;;;13.25;88.75;100405.00;5041403;28;45861;-58
2024/04/04 09:13:04;;;;;;;;;1.00;0.00;;;;;13.31;88.45;100391.59;5041289;28;45257;-58
2024/04/04 09:15:29;;;;;;;;;2.00;1.00;;;;;13.42;88.23;100406.91;5050321;28;45515;-58
2024/04/04 09:18:05;;;;;;;;;1.00;1.00;;;;;13.50;88.13;100404.78;5056299;28;46144;-55
2024/04/04 09:20:34;;;;;;;;;6.75;2.00;;;;;13.54;87.94;100410.78;5061092;28;45335;-58
2024/04/04 09:23:01;;;;;;;;;1.25;1.00;;;;;13.59;88.13;100412.25;5049857;28;45244;-57
2024/04/04 09:25:27;;;;;;;;;2.00;0.25;;;;;13.68;88.41;100414.47;5053481;28;45442;-58
2024/04/04 09:27:52;;;;;;;;;4.00;1.50;;;;;13.79;88.03;100413.13;5060958;28;45252;-57
2024/04/04 09:30:19;;;;;;;;;2.00;2.00;;;;;13.95;87.77;100408.03;5052901;28;45270;-58
2024/04/04 09:32:46;;;;;;;;;2.00;2.00;;;;;14.01;87.78;100403.34;5055385;28;45346;-58
2024/04/04 09:35:12;;;;;;;;;3.50;3.50;;;;;14.04;87.79;100413.72;5050187;28;45395;-58
2024/04/04 09:37:37;;;;;;;;;5.50;3.75;;;;;14.12;88.04;100400.22;5047067;28;48160;-58
2024/04/04 09:40:04;;;;;;;;;6.00;3.75;;;;;14.20;88.30;100405.97;5058607;28;72197;-58
2024/04/04 09:42:30;;;;;;;;;7.00;3.00;;;;;14.29;88.31;100409.94;5055827;28;45344;-58
2024/04/04 09:44:55;;;;;;;;;5.25;3.00;;;;;14.36;87.74;100403.47;5054175;28;72529;-58
2024/04/04 09:47:21;;;;;;;;;4.50;4.00;;;;;14.44;87.48;100405.72;5056455;27;45321;-58
2024/04/04 09:49:49;;;;;;;;;8.00;3.00;;;;;14.47;87.36;100405.56;5047820;28;68145;-57
2024/04/04 09:52:16;;;;;;;;;2.00;2.00;;;;;14.40;86.87;100401.53;5042934;28;45446;-59
2024/04/04 09:54:42;;;;;;;;;5.50;3.00;;;;;14.36;86.79;100413.13;5039623;28;73057;-60
2024/04/04 09:57:07;;;;;;;;;4.75;3.75;;;;;14.42;87.18;100410.22;5038198;28;75506;-59
2024/04/04 09:59:32;;;;;;;;;73.50;58.00;;;;;14.47;87.17;100410.84;5051194;28;73356;-60
2024/04/04 10:02:05;;;;;;;;;27.75;20.50;;;;;14.59;87.76;100419.97;5047909;28;53719;-58
2024/04/04 10:04:37;;;;;;;;;8.75;4.00;;;;;14.68;87.53;100418.63;5052047;28;45481;-58
2024/04/04 10:07:04;;;;;;;;;4.50;2.50;;;;;14.77;87.04;100420.84;5043926;28;46177;-59
2024/04/04 10:09:37;;;;;;;;;2.25;1.00;;;;;14.90;87.28;100415.81;5040288;28;45348;-59
2024/04/04 10:12:10;;;;;;;;;3.25;1.75;;;;;15.06;87.25;100413.25;5040692;28;45361;-59
2024/04/04 10:14:36;;;;;;;;;13.25;6.50;;;;;15.28;87.50;100416.50;5039043;28;45443;-59
2024/04/04 10:17:05;;;;;;;;;52.00;38.00;;;;;15.56;86.94;100409.75;5057022;28;47353;-59
2024/04/04 10:19:34;;;;;;;;;7.75;5.50;;;;;15.85;86.57;100408.25;5059043;28;46873;-58
2024/04/04 10:22:02;;;;;;;;;2.50;1.00;;;;;16.13;85.72;100406.72;5043030;28;45333;-59
2024/04/04 10:24:31;;;;;;;;;4.50;2.00;;;;;16.28;84.31;100395.28;5040120;28;45506;-59
2024/04/04 10:26:58;;;;;;;;;3.25;2.00;;;;;16.32;83.86;100409.19;5040072;28;46330;-57
2024/04/04 10:29:27;;;;;;;;;6.25;2.25;;;;;16.32;83.73;100409.19;5043105;28;45291;-56
2024/04/04 10:31:52;;;;;;;;;4.50;2.75;;;;;16.33;83.74;100408.25;5050431;28;45271;-58
2024/04/04 10:34:18;;;;;;;;;22.75;20.50;;;;;16.48;83.63;100403.88;5053982;28;71886;-59
2024/04/04 10:36:46;;;;;;;;;16.75;11.00;;;;;16.60;83.38;100397.91;5039968;28;45493;-59
2024/04/04 10:39:21;;;;;;;;;5.00;2.00;;;;;16.64;83.10;100399.44;5040114;28;72074;-59
2024/04/04 10:41:48;;;;;;;;;1.25;1.25;;;;;16.75;82.91;100401.47;5040718;28;45369;-59
2024/04/04 10:44:15;;;;;;;;;5.00;2.75;;;;;16.89;82.65;100409.47;5038669;28;45430;-59
2024/04/04 10:46:44;;;;;;;;;3.50;3.50;;;;;16.94;81.97;100403.88;5059736;28;45778;-59
2024/04/04 10:49:11;;;;;;;;;3.50;3.00;;;;;16.91;81.94;100411.16;5044128;28;45844;-59
2024/04/04 10:51:37;;;;;;;;;4.75;3.75;;;;;16.84;82.21;100400.09;5046793;28;45331;-59
2024/04/04 10:54:03;;;;;;;;;4.75;3.75;;;;;16.80;82.34;100402.03;5039842;28;45688;-59
2024/04/04 10:56:30;;;;;;;;;6.00;3.25;;;;;16.87;82.88;100397.25;5052869;28;45225;-59
2024/04/04 10:58:56;;;;;;;;;8.00;5.00;;;;;16.95;82.28;100396.81;5039870;28;49007;-58
2024/04/04 11:01:22;;;;;;;;;6.75;2.25;;;;;17.07;82.13;100391.66;5038162;28;45299;-58
2024/04/04 11:03:50;;;;;;;;;6.50;3.25;;;;;17.20;81.58;100380.34;5039452;28;45518;-59
2024/04/04 11:06:16;;;;;;;;;9.75;4.75;;;;;17.32;80.89;100376.97;5048792;28;46434;-59
2024/04/04 11:08:44;;;;;;;;;8.25;5.00;;;;;17.45;80.92;100374.41;5058864;28;67826;-57
2024/04/04 11:11:10;;;;;;;;;11.25;5.25;;;;;17.61;80.10;100361.91;5059521;27;45219;-58
2024/04/04 11:13:36;;;;;;;;;7.50;3.25;;;;;17.69;79.20;100366.75;5059586;28;45285;-58
2024/04/04 11:16:02;;;;;;;;;7.25;3.75;;;;;17.76;77.97;100372.47;5059148;28;46417;-58
2024/04/04 11:18:28;;;;;;;;;10.25;5.00;;;;;17.81;77.50;100378.34;5059489;28;45297;-58